Portada
METAR-TAF:

METAR-TAF

Aeropuertos :

Trebisonda, Turquía

latitud: 41-00N, longitud: 039-43E, altitud: 35 m

Observación

El informe se hizo hace 35 minutos, a las 23:50 UTC
Viento 8 kt del sur-suroeste, variando entre sur y suroeste
Temperatura 18°C
Humedad 32%
Presión 1009 hPa
Visibilidad 10 km o más
Cielo nuboso a una altura de 10000 ft

METAR: LTCG 132350Z 20008KT 170V230 9999 BKN100 18/01 Q1009 NOSIG RMK RWY29 18003KT 120V240

Hora: 03:25 (00:25 UTC)

Pronóstico

El informe se hizo hace 1 hora y 45 minutos, a las 22:40 UTC
Pronóstico válido del 14 a las 00 UTC al 14 a las 24 UTC
Viento 7 kt del sur-suroeste
Visibilidad 10 km o más
Cielo nuboso a una altura de 10000 ft
Probabilidad 30%
del 14 a las 03 UTC al 14 a las 06 UTC
Cielo nuboso a una altura de 3300 ft
chaparrones de lluvia

TAF: LTCG 132240Z 1400/1424 20007KT 9999 BKN100 PROB30 1403/1406 -SHRA BKN033

Observaciones y pronósticos meteorológicos de más de 4000 aeropuertos (mensajes METAR y TAF).

Los puntos amarillos y rojos representan las estaciones disponibles.

Ponga el ratón en el punto deseado para ver el nombre de la estación.

Haga clic para ver las observaciones y los pronósticos meteorológicos.

Para cambiar el mapa : haga clic en los botones verdes con una cruz de color negro para hacer un zoom, en el botón verde con un guión para alejar o en las flechas verdes para mapas adyacentes.


METAR-TAF: